Time,TemperatureF,DewpointF,PressureIn,WindDirection,WindDirectionDegrees,WindSpeedMPH,WindSpeedGustMPH,Humidity,HourlyPrecipIn,Conditions,Clouds,dailyrainin,SolarRadiationWatts/m^2,SoftwareType,DateUTC
2013-02-15 00:01:00,36.0,19.0,-100.00,North,351,4.0,9.0,50,0.00,,,0.00,0.000000,,2013-02-15 07:01:00,
2013-02-15 00:11:00,36.0,21.0,-100.00,NW,326,3.0,6.0,53,0.00,,,0.00,0.000000,,2013-02-15 07:11:00,
2013-02-15 00:42:00,36.0,21.0,-100.00,NW,326,3.0,6.0,53,0.00,,,0.00,0.000000,,2013-02-15 07:42:00,
2013-02-15 00:52:00,36.0,21.0,-100.00,NW,326,3.0,6.0,53,0.00,,,0.00,0.000000,,2013-02-15 07:52:00,
2013-02-15 01:01:00,36.0,21.0,-100.00,NW,326,3.0,6.0,53,0.00,,,0.00,0.000000,,2013-02-15 08:01:00,
2013-02-15 01:11:00,35.0,20.0,-100.00,ENE,64,3.0,7.0,53,0.00,,,0.00,0.000000,,2013-02-15 08:11:00,
2013-02-15 01:32:00,35.0,20.0,-100.00,ENE,64,3.0,7.0,53,0.00,,,0.00,0.000000,,2013-02-15 08:32:00,
2013-02-15 01:42:00,35.0,20.0,-100.00,ENE,64,3.0,7.0,53,0.00,,,0.00,0.000000,,2013-02-15 08:42:00,
2013-02-15 01:53:00,35.0,20.0,-100.00,ENE,64,3.0,7.0,53,0.00,,,0.00,0.000000,,2013-02-15 08:53:00,
2013-02-15 02:01:00,35.0,20.0,-100.00,ENE,64,3.0,7.0,53,0.00,,,0.00,0.000000,,2013-02-15 09:01:00,
2013-02-15 02:11:00,30.0,19.0,-100.00,SSE,166,1.0,6.0,62,0.00,,,0.00,0.000000,,2013-02-15 09:11:00,
2013-02-15 02:42:00,30.0,19.0,-100.00,SSE,166,1.0,6.0,62,0.00,,,0.00,0.000000,,2013-02-15 09:42:00,
2013-02-15 02:52:00,30.0,19.0,-100.00,SSE,166,1.0,6.0,62,0.00,,,0.00,0.000000,,2013-02-15 09:52:00,
2013-02-15 03:01:00,30.0,19.0,-100.00,SSE,166,1.0,6.0,62,0.00,,,0.00,0.000000,,2013-02-15 10:01:00,
2013-02-15 03:11:00,28.0,20.0,-100.00,WSW,253,2.0,3.0,73,0.00,,,0.00,0.000000,,2013-02-15 10:11:00,
2013-02-15 03:42:00,28.0,20.0,-100.00,WSW,253,2.0,3.0,73,0.00,,,0.00,0.000000,,2013-02-15 10:42:00,
2013-02-15 03:52:00,28.0,20.0,-100.00,WSW,253,2.0,3.0,73,0.00,,,0.00,0.000000,,2013-02-15 10:52:00,
2013-02-15 04:01:00,28.0,20.0,-100.00,WSW,253,2.0,3.0,73,0.00,,,0.00,0.000000,,2013-02-15 11:01:00,
2013-02-15 04:11:00,26.0,21.0,-100.00,WSW,248,1.0,2.0,80,0.00,,,0.00,0.000000,,2013-02-15 11:11:00,
2013-02-15 04:32:00,26.0,21.0,-100.00,WSW,248,1.0,2.0,80,0.00,,,0.00,0.000000,,2013-02-15 11:32:00,
2013-02-15 04:42:00,26.0,21.0,-100.00,WSW,248,1.0,2.0,80,0.00,,,0.00,0.000000,,2013-02-15 11:42:00,
2013-02-15 04:52:00,26.0,21.0,-100.00,WSW,248,1.0,2.0,80,0.00,,,0.00,0.000000,,2013-02-15 11:52:00,
2013-02-15 05:01:00,26.0,21.0,-100.00,WSW,248,1.0,2.0,80,0.00,,,0.00,0.000000,,2013-02-15 12:01:00,
2013-02-15 05:11:00,26.0,21.0,-100.00,WNW,299,1.0,2.0,81,0.00,,,0.00,0.000000,,2013-02-15 12:11:00,
2013-02-15 05:32:00,26.0,21.0,-100.00,WNW,299,1.0,2.0,81,0.00,,,0.00,0.000000,,2013-02-15 12:32:00,
2013-02-15 05:42:00,26.0,21.0,-100.00,WNW,299,1.0,2.0,81,0.00,,,0.00,0.000000,,2013-02-15 12:42:00,
2013-02-15 05:52:00,26.0,21.0,-100.00,WNW,299,1.0,2.0,81,0.00,,,0.00,0.000000,,2013-02-15 12:52:00,
2013-02-15 06:02:00,26.0,21.0,-100.00,WNW,299,1.0,2.0,81,0.00,,,0.00,0.000000,,2013-02-15 13:02:00,
2013-02-15 06:11:00,26.0,22.0,-100.00,SW,226,2.0,3.0,83,0.00,,,-99.99,0.000000,,2013-02-15 13:11:00,
2013-02-15 06:42:00,26.0,22.0,-100.00,SW,226,2.0,3.0,83,0.00,,,-99.99,0.000000,,2013-02-15 13:42:00,
2013-02-15 06:52:00,26.0,22.0,-100.00,SW,226,2.0,3.0,83,0.00,,,-99.99,0.000000,,2013-02-15 13:52:00,
2013-02-15 07:01:00,26.0,22.0,-100.00,SW,226,2.0,3.0,83,0.00,,,-99.99,0.000000,,2013-02-15 14:01:00,
2013-02-15 07:11:00,28.0,24.0,-100.00,South,182,2.0,3.0,84,0.00,,,0.00,0.000000,,2013-02-15 14:11:00,
2013-02-15 07:42:00,28.0,24.0,-100.00,South,182,2.0,3.0,84,0.00,,,0.00,0.000000,,2013-02-15 14:42:00,
2013-02-15 07:52:00,28.0,24.0,-100.00,South,182,2.0,3.0,84,0.00,,,0.00,0.000000,,2013-02-15 14:52:00,
2013-02-15 08:01:00,28.0,24.0,-100.00,South,182,2.0,3.0,84,0.00,,,0.00,0.000000,,2013-02-15 15:01:00,
2013-02-15 08:11:00,29.0,24.0,-100.00,South,180,2.0,3.0,80,0.00,,,0.00,4.000000,,2013-02-15 15:11:00,
2013-02-15 08:32:00,29.0,24.0,-100.00,South,180,2.0,3.0,80,0.00,,,0.00,4.000000,,2013-02-15 15:32:00,
2013-02-15 08:42:00,29.0,24.0,-100.00,South,180,2.0,3.0,80,0.00,,,0.00,4.000000,,2013-02-15 15:42:00,
2013-02-15 08:52:00,29.0,24.0,-100.00,South,180,2.0,3.0,80,0.00,,,0.00,4.000000,,2013-02-15 15:52:00,
2013-02-15 09:01:00,29.0,24.0,-100.00,South,180,2.0,3.0,80,0.00,,,0.00,4.000000,,2013-02-15 16:01:00,
2013-02-15 09:11:00,30.0,23.0,-100.00,ENE,69,1.0,3.0,75,0.00,,,0.00,37.000000,,2013-02-15 16:11:00,
2013-02-15 09:32:00,30.0,23.0,-100.00,ENE,69,1.0,3.0,75,0.00,,,0.00,37.000000,,2013-02-15 16:32:00,
2013-02-15 09:43:00,30.0,23.0,-100.00,ENE,69,1.0,3.0,75,0.00,,,0.00,37.000000,,2013-02-15 16:43:00,
2013-02-15 09:52:00,30.0,23.0,-100.00,ENE,69,1.0,3.0,75,0.00,,,0.00,37.000000,,2013-02-15 16:52:00,
2013-02-15 10:01:00,30.0,23.0,-100.00,ENE,69,1.0,3.0,75,0.00,,,0.00,37.000000,,2013-02-15 17:01:00,
2013-02-15 10:11:00,35.0,26.0,-100.00,West,275,1.0,2.0,70,0.00,,,0.00,115.000000,,2013-02-15 17:11:00,
2013-02-15 10:32:00,35.0,26.0,-100.00,West,275,1.0,2.0,70,0.00,,,0.00,115.000000,,2013-02-15 17:32:00,
2013-02-15 10:42:00,35.0,26.0,-100.00,West,275,1.0,2.0,70,0.00,,,0.00,115.000000,,2013-02-15 17:42:00,
2013-02-15 10:52:00,35.0,26.0,-100.00,West,275,1.0,2.0,70,0.00,,,0.00,115.000000,,2013-02-15 17:52:00,
2013-02-15 11:01:00,35.0,26.0,-100.00,West,275,1.0,2.0,70,0.00,,,0.00,115.000000,,2013-02-15 18:01:00,
2013-02-15 11:11:00,36.0,23.0,-100.00,NNE,28,2.0,3.0,60,0.00,,,0.00,166.000000,,2013-02-15 18:11:00,
2013-02-15 11:42:00,36.0,23.0,-100.00,NNE,28,2.0,3.0,60,0.00,,,0.00,166.000000,,2013-02-15 18:42:00,
2013-02-15 11:52:00,36.0,23.0,-100.00,NNE,28,2.0,3.0,60,0.00,,,0.00,166.000000,,2013-02-15 18:52:00,
2013-02-15 12:01:00,36.0,23.0,-100.00,NNE,28,2.0,3.0,60,0.00,,,0.00,166.000000,,2013-02-15 19:01:00,
2013-02-15 12:11:00,38.0,26.0,-100.00,ENE,58,1.0,3.0,61,0.00,,,0.00,170.000000,,2013-02-15 19:11:00,
2013-02-15 12:42:00,38.0,26.0,-100.00,ENE,58,1.0,3.0,61,0.00,,,0.00,170.000000,,2013-02-15 19:42:00,
2013-02-15 12:52:00,38.0,26.0,-100.00,ENE,58,1.0,3.0,61,0.00,,,0.00,170.000000,,2013-02-15 19:52:00,
2013-02-15 13:01:00,38.0,26.0,-100.00,ENE,58,1.0,3.0,61,0.00,,,0.00,170.000000,,2013-02-15 20:01:00,
2013-02-15 13:11:00,40.0,26.0,-100.00,East,80,1.0,3.0,57,0.00,,,0.00,256.000000,,2013-02-15 20:11:00,
2013-02-15 13:42:00,40.0,26.0,-100.00,East,80,1.0,3.0,57,0.00,,,0.00,256.000000,,2013-02-15 20:42:00,
2013-02-15 13:52:00,40.0,26.0,-100.00,East,80,1.0,3.0,57,0.00,,,0.00,256.000000,,2013-02-15 20:52:00,
2013-02-15 14:01:00,40.0,26.0,-100.00,East,80,1.0,3.0,57,0.00,,,0.00,256.000000,,2013-02-15 21:01:00,
2013-02-15 14:11:00,42.0,24.0,-100.00,NNE,19,2.0,4.0,49,0.00,,,0.00,259.000000,,2013-02-15 21:11:00,
2013-02-15 14:42:00,42.0,24.0,-100.00,NNE,19,2.0,4.0,49,0.00,,,0.00,259.000000,,2013-02-15 21:42:00,
2013-02-15 14:52:00,42.0,24.0,-100.00,NNE,19,2.0,4.0,49,0.00,,,0.00,259.000000,,2013-02-15 21:52:00,
2013-02-15 15:02:00,42.0,24.0,-100.00,NNE,19,2.0,4.0,49,0.00,,,0.00,259.000000,,2013-02-15 22:02:00,
2013-02-15 15:11:00,42.0,27.0,-100.00,West,263,1.0,4.0,54,0.00,,,0.00,205.000000,,2013-02-15 22:11:00,
2013-02-15 15:42:00,42.0,27.0,-100.00,West,263,1.0,4.0,54,0.00,,,0.00,205.000000,,2013-02-15 22:42:00,
2013-02-15 15:52:00,42.0,27.0,-100.00,West,263,1.0,4.0,54,0.00,,,0.00,205.000000,,2013-02-15 22:52:00,
2013-02-15 16:02:00,42.0,27.0,-100.00,West,263,1.0,4.0,54,0.00,,,0.00,205.000000,,2013-02-15 23:02:00,
2013-02-15 16:11:00,42.0,25.0,-100.00,NNE,29,3.0,5.0,50,0.00,,,0.00,186.000000,,2013-02-15 23:11:00,
2013-02-15 16:32:00,42.0,25.0,-100.00,NNE,29,3.0,5.0,50,0.00,,,0.00,186.000000,,2013-02-15 23:32:00,
2013-02-15 16:42:00,42.0,25.0,-100.00,NNE,29,3.0,5.0,50,0.00,,,0.00,186.000000,,2013-02-15 23:42:00,
2013-02-15 16:52:00,42.0,25.0,-100.00,NNE,29,3.0,5.0,50,0.00,,,0.00,186.000000,,2013-02-15 23:52:00,
2013-02-15 17:02:00,42.0,25.0,-100.00,NNE,29,3.0,5.0,50,0.00,,,0.00,186.000000,,2013-02-16 00:02:00,
2013-02-15 17:11:00,40.0,25.0,-100.00,West,265,1.0,5.0,55,0.00,,,0.00,74.000000,,2013-02-16 00:11:00,
2013-02-15 17:32:00,40.0,25.0,-100.00,West,265,1.0,5.0,55,0.00,,,0.00,74.000000,,2013-02-16 00:32:00,
2013-02-15 17:42:00,40.0,25.0,-100.00,West,265,1.0,5.0,55,0.00,,,0.00,74.000000,,2013-02-16 00:42:00,
2013-02-15 17:52:00,40.0,25.0,-100.00,West,265,1.0,5.0,55,0.00,,,0.00,74.000000,,2013-02-16 00:52:00,
2013-02-15 18:02:00,40.0,25.0,-100.00,West,265,1.0,5.0,55,0.00,,,0.00,74.000000,,2013-02-16 01:02:00,
2013-02-15 18:11:00,37.0,24.0,-100.00,SE,145,1.0,2.0,60,0.00,,,-99.99,25.000000,,2013-02-16 01:11:00,
2013-02-15 18:32:00,37.0,24.0,-100.00,SE,145,1.0,2.0,60,0.00,,,-99.99,25.000000,,2013-02-16 01:32:00,
2013-02-15 18:42:00,37.0,24.0,-100.00,SE,145,1.0,2.0,60,0.00,,,-99.99,25.000000,,2013-02-16 01:42:00,
2013-02-15 18:52:00,37.0,24.0,-100.00,SE,145,1.0,2.0,60,0.00,,,-99.99,25.000000,,2013-02-16 01:52:00,
2013-02-15 19:01:00,37.0,24.0,-100.00,SE,145,1.0,2.0,60,0.00,,,-99.99,25.000000,,2013-02-16 02:01:00,
2013-02-15 19:11:00,35.0,27.0,-100.00,East,97,0.0,2.0,73,0.00,,,0.00,0.000000,,2013-02-16 02:11:00,
2013-02-15 19:42:00,35.0,27.0,-100.00,East,97,0.0,2.0,73,0.00,,,0.00,0.000000,,2013-02-16 02:42:00,
2013-02-15 19:52:00,35.0,27.0,-100.00,East,97,0.0,2.0,73,0.00,,,0.00,0.000000,,2013-02-16 02:52:00,
2013-02-15 20:01:00,35.0,27.0,-100.00,East,97,0.0,2.0,73,0.00,,,0.00,0.000000,,2013-02-16 03:01:00,
2013-02-15 20:11:00,34.0,28.0,-100.00,SSW,201,1.0,2.0,78,0.00,,,0.00,0.000000,,2013-02-16 03:11:00,
2013-02-15 20:42:00,34.0,28.0,-100.00,SSW,201,1.0,2.0,78,0.00,,,0.00,0.000000,,2013-02-16 03:42:00,
2013-02-15 20:52:00,34.0,28.0,-100.00,SSW,201,1.0,2.0,78,0.00,,,0.00,0.000000,,2013-02-16 03:52:00,
2013-02-15 21:01:00,34.0,28.0,-100.00,SSW,201,1.0,2.0,78,0.00,,,0.00,0.000000,,2013-02-16 04:01:00,
2013-02-15 21:11:00,34.0,28.0,-100.00,East,100,1.0,2.0,79,0.00,,,0.00,0.000000,,2013-02-16 04:11:00,
2013-02-15 21:32:00,34.0,28.0,-100.00,East,100,1.0,2.0,79,0.00,,,0.00,0.000000,,2013-02-16 04:32:00,
2013-02-15 21:42:00,34.0,28.0,-100.00,East,100,1.0,2.0,79,0.00,,,0.00,0.000000,,2013-02-16 04:42:00,
2013-02-15 21:52:00,34.0,28.0,-100.00,East,100,1.0,2.0,79,0.00,,,0.00,0.000000,,2013-02-16 04:52:00,
2013-02-15 22:01:00,34.0,28.0,-100.00,East,100,1.0,2.0,79,0.00,,,0.00,0.000000,,2013-02-16 05:01:00,
2013-02-15 22:11:00,33.0,27.0,-100.00,SSW,192,1.0,2.0,79,0.00,,,0.00,0.000000,,2013-02-16 05:11:00,
2013-02-15 22:32:00,33.0,27.0,-100.00,SSW,192,1.0,2.0,79,0.00,,,0.00,0.000000,,2013-02-16 05:32:00,
2013-02-15 22:42:00,33.0,27.0,-100.00,SSW,192,1.0,2.0,79,0.00,,,0.00,0.000000,,2013-02-16 05:42:00,
2013-02-15 22:52:00,33.0,27.0,-100.00,SSW,192,1.0,2.0,79,0.00,,,0.00,0.000000,,2013-02-16 05:52:00,
2013-02-15 23:01:00,33.0,27.0,-100.00,SSW,192,1.0,2.0,79,0.00,,,0.00,0.000000,,2013-02-16 06:01:00,
2013-02-15 23:11:00,33.0,28.0,-100.00,NW,308,2.0,3.0,82,0.00,,,0.00,0.000000,,2013-02-16 06:11:00,
2013-02-15 23:42:00,33.0,28.0,-100.00,NW,308,2.0,3.0,82,0.00,,,0.00,0.000000,,2013-02-16 06:42:00,
2013-02-15 23:52:00,33.0,28.0,-100.00,NW,308,2.0,3.0,82,0.00,,,0.00,0.000000,,2013-02-16 06:52:00,